sensor_id;sensor_type;location;lat;lon;timestamp;pressure;altitude;pressure_sealevel;temperature;humidity
47240;BME280;32978;53.586;10.052;2023-03-03T00:00:07;102442.69;;;0.11;100.00
47240;BME280;32978;53.586;10.052;2023-03-03T00:05:04;102438.75;;;0.20;100.00
47240;BME280;32978;53.586;10.052;2023-03-03T00:10:01;102444.16;;;0.27;100.00
47240;BME280;32978;53.586;10.052;2023-03-03T00:14:57;102432.56;;;0.27;100.00
47240;BME280;32978;53.586;10.052;2023-03-03T00:19:54;102445.81;;;0.22;100.00
47240;BME280;32978;53.586;10.052;2023-03-03T00:24:51;102440.22;;;0.16;100.00
47240;BME280;32978;53.586;10.052;2023-03-03T00:29:53;102440.44;;;0.22;100.00
47240;BME280;32978;53.586;10.052;2023-03-03T00:34:54;102443.75;;;0.30;100.00
47240;BME280;32978;53.586;10.052;2023-03-03T00:39:50;102434.22;;;0.41;100.00
47240;BME280;32978;53.586;10.052;2023-03-03T00:44:51;102446.22;;;0.32;100.00
47240;BME280;32978;53.586;10.052;2023-03-03T00:49:52;102439.59;;;0.48;100.00
47240;BME280;32978;53.586;10.052;2023-03-03T00:54:49;102435.06;;;0.35;100.00
47240;BME280;32978;53.586;10.052;2023-03-03T00:59:46;102442.91;;;0.36;100.00
47240;BME280;32978;53.586;10.052;2023-03-03T01:04:45;102441.66;;;0.46;100.00
47240;BME280;32978;53.586;10.052;2023-03-03T01:09:44;102432.56;;;0.27;100.00
47240;BME280;32978;53.586;10.052;2023-03-03T01:14:41;102443.75;;;0.24;100.00
47240;BME280;32978;53.586;10.052;2023-03-03T01:19:37;102432.34;;;0.15;100.00
47240;BME280;32978;53.586;10.052;2023-03-03T01:24:34;102425.31;;;0.07;100.00
47240;BME280;32978;53.586;10.052;2023-03-03T01:29:30;102418.91;;;0.15;100.00
47240;BME280;32978;53.586;10.052;2023-03-03T01:34:27;102412.69;;;0.28;100.00
47240;BME280;32978;53.586;10.052;2023-03-03T01:39:23;102404.00;;;0.26;100.00
47240;BME280;32978;53.586;10.052;2023-03-03T01:44:19;102412.47;;;-0.04;100.00
47240;BME280;32978;53.586;10.052;2023-03-03T01:49:49;102400.69;;;0.17;100.00
47240;BME280;32978;53.586;10.052;2023-03-03T01:54:51;102408.13;;;0.08;100.00
47240;BME280;32978;53.586;10.052;2023-03-03T01:59:49;102401.91;;;0.28;100.00
47240;BME280;32978;53.586;10.052;2023-03-03T02:04:49;102392.19;;;0.20;100.00
47240;BME280;32978;53.586;10.052;2023-03-03T02:10:09;102404.81;;;0.46;100.00
47240;BME280;32978;53.586;10.052;2023-03-03T02:15:26;102397.59;;;0.40;100.00
47240;BME280;32978;53.586;10.052;2023-03-03T02:20:41;102399.88;;;0.03;100.00
47240;BME280;32978;53.586;10.052;2023-03-03T02:25:51;102399.88;;;0.03;100.00
47240;BME280;32978;53.586;10.052;2023-03-03T02:30:57;102396.53;;;-0.06;100.00
47240;BME280;32978;53.586;10.052;2023-03-03T02:35:54;102408.09;;;-0.12;100.00
47240;BME280;32978;53.586;10.052;2023-03-03T02:40:58;102402.28;;;-0.29;100.00
47240;BME280;32978;53.586;10.052;2023-03-03T02:45:58;102401.50;;;-0.23;100.00
47240;BME280;32978;53.586;10.052;2023-03-03T02:50:54;102390.75;;;-0.23;100.00
47240;BME280;32978;53.586;10.052;2023-03-03T02:55:51;102402.28;;;-0.35;100.00
47240;BME280;32978;53.586;10.052;2023-03-03T03:00:47;102407.22;;;-0.46;100.00
47240;BME280;32978;53.586;10.052;2023-03-03T03:05:44;102413.63;;;-0.47;100.00
47240;BME280;32978;53.586;10.052;2023-03-03T03:10:40;102415.47;;;-0.47;100.00
47240;BME280;32978;53.586;10.052;2023-03-03T03:15:37;102419.66;;;-0.38;100.00
47240;BME280;32978;53.586;10.052;2023-03-03T03:20:36;102416.91;;;-0.51;100.00
47240;BME280;32978;53.586;10.052;2023-03-03T03:25:32;102407.59;;;-0.62;100.00
47240;BME280;32978;53.586;10.052;2023-03-03T03:30:29;102416.69;;;-0.56;100.00
47240;BME280;32978;53.586;10.052;2023-03-03T03:35:25;102393.59;;;-0.44;100.00
47240;BME280;32978;53.586;10.052;2023-03-03T03:40:22;102403.94;;;-0.41;100.00
47240;BME280;32978;53.586;10.052;2023-03-03T03:45:21;102407.84;;;-0.50;100.00
47240;BME280;32978;53.586;10.052;2023-03-03T03:50:17;102419.09;;;-0.75;100.00
47240;BME280;32978;53.586;10.052;2023-03-03T03:55:14;102409.63;;;-0.71;100.00
47240;BME280;32978;53.586;10.052;2023-03-03T04:00:12;102394.34;;;-0.64;100.00
47240;BME280;32978;53.586;10.052;2023-03-03T04:05:09;102393.06;;;-0.74;100.00
47240;BME280;32978;53.586;10.052;2023-03-03T04:10:05;102395.56;;;-0.73;100.00
47240;BME280;32978;53.586;10.052;2023-03-03T04:15:05;102390.22;;;-0.66;100.00
47240;BME280;32978;53.586;10.052;2023-03-03T04:20:03;102390.59;;;-0.76;100.00
47240;BME280;32978;53.586;10.052;2023-03-03T04:25:04;102391.19;;;-0.80;100.00
47240;BME280;32978;53.586;10.052;2023-03-03T04:30:02;102396.47;;;-0.52;100.00
47240;BME280;32978;53.586;10.052;2023-03-03T04:34:58;102384.47;;;-0.50;100.00
47240;BME280;32978;53.586;10.052;2023-03-03T04:40:05;102388.56;;;-0.60;100.00
47240;BME280;32978;53.586;10.052;2023-03-03T04:45:03;102385.25;;;-0.69;100.00
47240;BME280;32978;53.586;10.052;2023-03-03T04:50:00;102391.50;;;-0.55;100.00
47240;BME280;32978;53.586;10.052;2023-03-03T04:54:57;102394.41;;;-0.50;100.00
47240;BME280;32978;53.586;10.052;2023-03-03T04:59:53;102403.03;;;-0.68;100.00
47240;BME280;32978;53.586;10.052;2023-03-03T05:04:50;102397.66;;;-0.61;100.00
47240;BME280;32978;53.586;10.052;2023-03-03T05:09:46;102393.88;;;-0.80;100.00
47240;BME280;32978;53.586;10.052;2023-03-03T05:14:43;102402.25;;;-0.55;100.00
47240;BME280;32978;53.586;10.052;2023-03-03T05:19:39;102406.78;;;-0.49;100.00
47240;BME280;32978;53.586;10.052;2023-03-03T05:24:36;102399.94;;;-0.58;100.00
47240;BME280;32978;53.586;10.052;2023-03-03T05:29:32;102397.88;;;-0.56;100.00
47240;BME280;32978;53.586;10.052;2023-03-03T05:34:28;102394.97;;;-0.61;100.00
47240;BME280;32978;53.586;10.052;2023-03-03T05:39:25;102394.34;;;-0.64;100.00
47240;BME280;32978;53.586;10.052;2023-03-03T05:44:22;102410.88;;;-0.67;100.00
47240;BME280;32978;53.586;10.052;2023-03-03T05:49:18;102410.53;;;-0.50;100.00
47240;BME280;32978;53.586;10.052;2023-03-03T05:54:14;102409.03;;;-0.59;100.00
47240;BME280;32978;53.586;10.052;2023-03-03T05:59:11;102403.72;;;-0.46;100.00
47240;BME280;32978;53.586;10.052;2023-03-03T06:04:07;102395.25;;;-0.43;100.00
47240;BME280;32978;53.586;10.052;2023-03-03T06:09:04;102395.63;;;-0.59;100.00
47240;BME280;32978;53.586;10.052;2023-03-03T06:14:01;102417.91;;;-0.66;100.00
47240;BME280;32978;53.586;10.052;2023-03-03T06:18:58;102433.22;;;-0.59;100.00
47240;BME280;32978;53.586;10.052;2023-03-03T06:23:54;102434.88;;;-0.58;100.00
47240;BME280;32978;53.586;10.052;2023-03-03T06:28:50;102426.44;;;-0.42;100.00
47240;BME280;32978;53.586;10.052;2023-03-03T06:33:49;102426.66;;;-0.50;100.00
47240;BME280;32978;53.586;10.052;2023-03-03T06:38:46;102431.59;;;-0.47;100.00
47240;BME280;32978;53.586;10.052;2023-03-03T06:43:43;102427.38;;;-0.70;100.00
47240;BME280;32978;53.586;10.052;2023-03-03T06:48:39;102438.81;;;-0.54;100.00
47240;BME280;32978;53.586;10.052;2023-03-03T06:53:37;102457.22;;;-0.51;100.00
47240;BME280;32978;53.586;10.052;2023-03-03T06:58:33;102451.25;;;-0.47;100.00
47240;BME280;32978;53.586;10.052;2023-03-03T07:08:30;102458.09;;;-0.44;100.00
47240;BME280;32978;53.586;10.052;2023-03-03T07:13:28;102470.06;;;-0.47;100.00
47240;BME280;32978;53.586;10.052;2023-03-03T07:18:43;102473.44;;;-0.31;100.00
47240;BME280;32978;53.586;10.052;2023-03-03T07:23:45;102471.34;;;-0.36;100.00
47240;BME280;32978;53.586;10.052;2023-03-03T07:28:59;102479.25;;;-0.14;100.00
47240;BME280;32978;53.586;10.052;2023-03-03T07:33:57;102483.41;;;-0.05;100.00
47240;BME280;32978;53.586;10.052;2023-03-03T07:38:58;102478.03;;;-0.05;100.00
47240;BME280;32978;53.586;10.052;2023-03-03T07:44:10;102487.56;;;0.04;100.00
47240;BME280;32978;53.586;10.052;2023-03-03T07:49:33;102486.31;;;-0.13;100.00
47240;BME280;32978;53.586;10.052;2023-03-03T07:54:38;102487.31;;;-0.14;100.00
47240;BME280;32978;53.586;10.052;2023-03-03T07:59:37;102482.59;;;-0.06;100.00
47240;BME280;32978;53.586;10.052;2023-03-03T08:04:43;102472.72;;;0.35;100.00
47240;BME280;32978;53.586;10.052;2023-03-03T08:09:51;102473.56;;;0.42;100.00
47240;BME280;32978;53.586;10.052;2023-03-03T08:14:53;102478.47;;;0.18;100.00
47240;BME280;32978;53.586;10.052;2023-03-03T08:19:50;102479.75;;;0.36;100.00
47240;BME280;32978;53.586;10.052;2023-03-03T08:24:48;102473.13;;;0.58;100.00
47240;BME280;32978;53.586;10.052;2023-03-03T08:29:44;102468.97;;;0.62;100.00
47240;BME280;32978;53.586;10.052;2023-03-03T08:34:43;102460.50;;;0.72;100.00
47240;BME280;32978;53.586;10.052;2023-03-03T08:39:40;102465.44;;;0.82;100.00
47240;BME280;32978;53.586;10.052;2023-03-03T08:44:37;102466.44;;;0.94;100.00
47240;BME280;32978;53.586;10.052;2023-03-03T08:49:33;102456.03;;;1.11;100.00
47240;BME280;32978;53.586;10.052;2023-03-03T08:54:30;102447.31;;;1.16;100.00
47240;BME280;32978;53.586;10.052;2023-03-03T08:59:26;102447.72;;;1.26;100.00
47240;BME280;32978;53.586;10.052;2023-03-03T09:04:23;102454.84;;;1.00;100.00
47240;BME280;32978;53.586;10.052;2023-03-03T09:09:19;102468.03;;;1.22;100.00
47240;BME280;32978;53.586;10.052;2023-03-03T09:14:18;102485.47;;;1.13;100.00
47240;BME280;32978;53.586;10.052;2023-03-03T09:24:26;102485.78;;;1.50;100.00
47240;BME280;32978;53.586;10.052;2023-03-03T09:29:36;102479.59;;;1.42;100.00
47240;BME280;32978;53.586;10.052;2023-03-03T09:39:35;102491.66;;;1.20;100.00
47240;BME280;32978;53.586;10.052;2023-03-03T10:05:46;102494.47;;;1.90;100.00
47240;BME280;32978;53.586;10.052;2023-03-03T10:11:04;102498.31;;;2.14;100.00
47240;BME280;32978;53.586;10.052;2023-03-03T10:16:09;102485.66;;;2.40;100.00
47240;BME280;32978;53.586;10.052;2023-03-03T10:26:18;102483.84;;;2.59;100.00
47240;BME280;32978;53.586;10.052;2023-03-03T10:31:44;102468.34;;;2.72;100.00
47240;BME280;32978;53.586;10.052;2023-03-03T10:37:02;102467.19;;;3.05;100.00
47240;BME280;32978;53.586;10.052;2023-03-03T10:42:16;102462.91;;;3.16;100.00
47240;BME280;32978;53.586;10.052;2023-03-03T10:47:30;102460.44;;;3.14;100.00
47240;BME280;32978;53.586;10.052;2023-03-03T10:57:37;102452.91;;;3.53;100.00
47240;BME280;32978;53.586;10.052;2023-03-03T11:02:42;102447.31;;;3.67;100.00
47240;BME280;32978;53.586;10.052;2023-03-03T11:07:48;102441.03;;;3.36;100.00
47240;BME280;32978;53.586;10.052;2023-03-03T11:13:18;102452.19;;;3.09;100.00
47240;BME280;32978;53.586;10.052;2023-03-03T11:18:32;102441.91;;;3.18;100.00
47240;BME280;32978;53.586;10.052;2023-03-03T11:34:35;102423.41;;;3.64;100.00
47240;BME280;32978;53.586;10.052;2023-03-03T11:39:35;102421.78;;;3.63;100.00
47240;BME280;32978;53.586;10.052;2023-03-03T11:44:52;102419.97;;;3.56;100.00
47240;BME280;32978;53.586;10.052;2023-03-03T11:50:07;102404.84;;;3.67;100.00
47240;BME280;32978;53.586;10.052;2023-03-03T11:55:32;102397.22;;;3.76;100.00
47240;BME280;32978;53.586;10.052;2023-03-03T12:06:11;102381.88;;;4.00;100.00
47240;BME280;32978;53.586;10.052;2023-03-03T12:11:24;102382.38;;;4.09;100.00
47240;BME280;32978;53.586;10.052;2023-03-03T12:16:33;102378.25;;;4.06;100.00
47240;BME280;32978;53.586;10.052;2023-03-03T12:21:55;102370.47;;;4.33;100.00
47240;BME280;32978;53.586;10.052;2023-03-03T12:37:52;102336.63;;;4.83;100.00
47240;BME280;32978;53.586;10.052;2023-03-03T12:43:08;102322.66;;;5.03;100.00
47240;BME280;32978;53.586;10.052;2023-03-03T12:48:18;102319.47;;;5.06;100.00
47240;BME280;32978;53.586;10.052;2023-03-03T12:53:48;102308.25;;;5.31;100.00
47240;BME280;32978;53.586;10.052;2023-03-03T12:59:00;102297.09;;;4.99;100.00
47240;BME280;32978;53.586;10.052;2023-03-03T13:04:48;102296.63;;;5.02;100.00
47240;BME280;32978;53.586;10.052;2023-03-03T13:15:11;102284.50;;;4.93;100.00
47240;BME280;32978;53.586;10.052;2023-03-03T13:20:53;102280.06;;;5.15;100.00
47240;BME280;32978;53.586;10.052;2023-03-03T13:26:10;102272.34;;;5.24;100.00
47240;BME280;32978;53.586;10.052;2023-03-03T13:31:33;102281.25;;;5.07;100.00
47240;BME280;32978;53.586;10.052;2023-03-03T13:36:40;102265.81;;;5.37;100.00
47240;BME280;32978;53.586;10.052;2023-03-03T13:41:56;102255.94;;;6.37;100.00
47240;BME280;32978;53.586;10.052;2023-03-03T13:47:02;102251.25;;;5.77;100.00
47240;BME280;32978;53.586;10.052;2023-03-03T13:52:07;102245.81;;;5.43;100.00
47240;BME280;32978;53.586;10.052;2023-03-03T13:57:44;102245.75;;;5.55;100.00
47240;BME280;32978;53.586;10.052;2023-03-03T14:13:29;102211.13;;;5.79;100.00
47240;BME280;32978;53.586;10.052;2023-03-03T14:18:29;102205.78;;;5.67;100.00
47240;BME280;32978;53.586;10.052;2023-03-03T14:28:46;102190.06;;;5.52;100.00
47240;BME280;32978;53.586;10.052;2023-03-03T14:34:11;102187.72;;;5.39;100.00
47240;BME280;32978;53.586;10.052;2023-03-03T14:39:36;102183.28;;;5.33;100.00
47240;BME280;32978;53.586;10.052;2023-03-03T14:44:36;102180.47;;;5.27;100.00
47240;BME280;32978;53.586;10.052;2023-03-03T14:49:43;102187.38;;;5.18;100.00
47240;BME280;32978;53.586;10.052;2023-03-03T14:54:48;102166.84;;;5.22;100.00
47240;BME280;32978;53.586;10.052;2023-03-03T15:00:04;102157.47;;;5.30;100.00
47240;BME280;32978;53.586;10.052;2023-03-03T15:05:15;102153.84;;;5.41;100.00
47240;BME280;32978;53.586;10.052;2023-03-03T15:10:26;102145.38;;;5.21;100.00
47240;BME280;32978;53.586;10.052;2023-03-03T15:15:25;102149.91;;;5.15;100.00
47240;BME280;32978;53.586;10.052;2023-03-03T15:26:01;102134.44;;;4.99;100.00
47240;BME280;32978;53.586;10.052;2023-03-03T15:31:07;102148.56;;;5.01;100.00
47240;BME280;32978;53.586;10.052;2023-03-03T15:36:18;102128.53;;;5.02;100.00
47240;BME280;32978;53.586;10.052;2023-03-03T15:41:42;102122.53;;;5.00;100.00
47240;BME280;32978;53.586;10.052;2023-03-03T15:52:44;102126.97;;;4.89;100.00
47240;BME280;32978;53.586;10.052;2023-03-03T16:02:25;102131.19;;;4.68;100.00
47240;BME280;32978;53.586;10.052;2023-03-03T16:28:51;102129.94;;;4.59;100.00
47240;BME280;32978;53.586;10.052;2023-03-03T16:33:59;102128.78;;;4.55;100.00
47240;BME280;32978;53.586;10.052;2023-03-03T16:39:07;102133.53;;;4.48;100.00
47240;BME280;32978;53.586;10.052;2023-03-03T16:49:30;102139.44;;;4.45;100.00
47240;BME280;32978;53.586;10.052;2023-03-03T17:00:11;102138.75;;;4.37;100.00
47240;BME280;32978;53.586;10.052;2023-03-03T17:10:39;102142.56;;;4.36;100.00
47240;BME280;32978;53.586;10.052;2023-03-03T17:15:43;102128.28;;;4.41;100.00
47240;BME280;32978;53.586;10.052;2023-03-03T17:20:49;102150.09;;;4.34;100.00
47240;BME280;32978;53.586;10.052;2023-03-03T17:41:39;102138.22;;;4.24;100.00
47240;BME280;32978;53.586;10.052;2023-03-03T17:51:58;102138.44;;;4.22;100.00
47240;BME280;32978;53.586;10.052;2023-03-03T17:57:07;102135.41;;;4.18;100.00
47240;BME280;32978;53.586;10.052;2023-03-03T18:02:14;102142.22;;;4.21;100.00
47240;BME280;32978;53.586;10.052;2023-03-03T18:07:42;102144.59;;;4.17;100.00
47240;BME280;32978;53.586;10.052;2023-03-03T18:12:58;102138.34;;;4.17;100.00
47240;BME280;32978;53.586;10.052;2023-03-03T18:18:04;102137.31;;;4.18;100.00
47240;BME280;32978;53.586;10.052;2023-03-03T18:29:21;102137.41;;;4.23;100.00
47240;BME280;32978;53.586;10.052;2023-03-03T18:34:09;102131.41;;;4.21;100.00
47240;BME280;32978;53.586;10.052;2023-03-03T18:45:07;102126.03;;;4.09;100.00
47240;BME280;32978;53.586;10.052;2023-03-03T18:50:29;102117.84;;;3.92;100.00
47240;BME280;32978;53.586;10.052;2023-03-03T18:55:27;102112.78;;;3.84;100.00
47240;BME280;32978;53.586;10.052;2023-03-03T19:00:28;102111.63;;;3.80;100.00
47240;BME280;32978;53.586;10.052;2023-03-03T19:05:33;102114.09;;;3.82;100.00
47240;BME280;32978;53.586;10.052;2023-03-03T19:15:51;102115.59;;;3.89;100.00
47240;BME280;32978;53.586;10.052;2023-03-03T19:20:59;102113.00;;;3.83;100.00
47240;BME280;32978;53.586;10.052;2023-03-03T19:31:30;102106.94;;;3.64;100.00
47240;BME280;32978;53.586;10.052;2023-03-03T19:36:41;102105.06;;;3.52;100.00
47240;BME280;32978;53.586;10.052;2023-03-03T19:57:04;102113.53;;;3.44;100.00
47240;BME280;32978;53.586;10.052;2023-03-03T20:02:18;102113.53;;;3.44;100.00
47240;BME280;32978;53.586;10.052;2023-03-03T20:13:08;102117.66;;;3.58;100.00
47240;BME280;32978;53.586;10.052;2023-03-03T20:18:36;102109.91;;;3.62;100.00
47240;BME280;32978;53.586;10.052;2023-03-03T20:45:15;102116.91;;;3.75;100.00
47240;BME280;32978;53.586;10.052;2023-03-03T20:50:25;102109.50;;;3.82;100.00
47240;BME280;32978;53.586;10.052;2023-03-03T20:55:38;102106.06;;;3.87;100.00
47240;BME280;32978;53.586;10.052;2023-03-03T21:06:05;102095.59;;;3.90;100.00
47240;BME280;32978;53.586;10.052;2023-03-03T21:11:04;102103.81;;;3.95;100.00
47240;BME280;32978;53.586;10.052;2023-03-03T21:16:29;102089.81;;;3.98;100.00
47240;BME280;32978;53.586;10.052;2023-03-03T21:21:28;102105.00;;;3.99;100.00
47240;BME280;32978;53.586;10.052;2023-03-03T21:26:53;102099.44;;;4.06;100.00
47240;BME280;32978;53.586;10.052;2023-03-03T21:32:05;102078.94;;;4.10;100.00
47240;BME280;32978;53.586;10.052;2023-03-03T21:37:04;102077.06;;;4.11;100.00
47240;BME280;32978;53.586;10.052;2023-03-03T21:42:07;102085.75;;;4.13;100.00
47240;BME280;32978;53.586;10.052;2023-03-03T21:47:10;102077.06;;;4.11;100.00
47240;BME280;32978;53.586;10.052;2023-03-03T21:52:06;102072.22;;;4.13;100.00
47240;BME280;32978;53.586;10.052;2023-03-03T21:57:03;102069.63;;;4.18;100.00
47240;BME280;32978;53.586;10.052;2023-03-03T22:02:00;102073.06;;;4.13;100.00
47240;BME280;32978;53.586;10.052;2023-03-03T22:06:56;102063.06;;;4.14;100.00
47240;BME280;32978;53.586;10.052;2023-03-03T22:11:53;102065.19;;;4.12;100.00
47240;BME280;32978;53.586;10.052;2023-03-03T22:16:49;102054.94;;;4.14;100.00
47240;BME280;32978;53.586;10.052;2023-03-03T22:21:46;102068.47;;;4.14;100.00
47240;BME280;32978;53.586;10.052;2023-03-03T22:26:42;102061.88;;;4.10;100.00
47240;BME280;32978;53.586;10.052;2023-03-03T22:31:39;102056.47;;;4.10;100.00
47240;BME280;32978;53.586;10.052;2023-03-03T22:36:35;102044.59;;;4.11;100.00
47240;BME280;32978;53.586;10.052;2023-03-03T22:41:32;102040.81;;;4.12;100.00
47240;BME280;32978;53.586;10.052;2023-03-03T22:46:28;102042.44;;;4.13;100.00
47240;BME280;32978;53.586;10.052;2023-03-03T22:51:25;102042.84;;;4.05;100.00
47240;BME280;32978;53.586;10.052;2023-03-03T22:56:21;102040.81;;;4.12;100.00
47240;BME280;32978;53.586;10.052;2023-03-03T23:01:18;102046.53;;;4.15;100.00
47240;BME280;32978;53.586;10.052;2023-03-03T23:06:14;102046.41;;;4.22;100.00
47240;BME280;32978;53.586;10.052;2023-03-03T23:11:11;102041.91;;;4.28;100.00
47240;BME280;32978;53.586;10.052;2023-03-03T23:16:07;102033.53;;;4.29;100.00
47240;BME280;32978;53.586;10.052;2023-03-03T23:21:04;102036.69;;;4.38;100.00
47240;BME280;32978;53.586;10.052;2023-03-03T23:26:00;102026.19;;;4.41;100.00
47240;BME280;32978;53.586;10.052;2023-03-03T23:30:57;102028.31;;;4.39;100.00
47240;BME280;32978;53.586;10.052;2023-03-03T23:35:53;102027.34;;;4.46;100.00
47240;BME280;32978;53.586;10.052;2023-03-03T23:40:50;102018.16;;;4.47;100.00
47240;BME280;32978;53.586;10.052;2023-03-03T23:45:46;102008.41;;;4.46;100.00
47240;BME280;32978;53.586;10.052;2023-03-03T23:50:43;102001.75;;;4.53;100.00
47240;BME280;32978;53.586;10.052;2023-03-03T23:55:39;102010.09;;;4.52;100.00
